KSDF/SDF METAR and TAF weather

Enter ICAO airport designator
Station Type Date Time Source
KSDF METAR 2021/03/06 00:56 UTC NOAA

KSDF 060056Z 33007KT 10SM BKN250 06/M06 A3029 RMK AO2 SLP260 T00561061


Station Type Date Time Source
KSDF Decoded METAR 2021/03/06 00:56 UTC NOAA

STANDIFORD FIELD, KY, United States (KSDF) 38-11N 085-44W 146M
Mar 05, 2021 - 07:56 PM EST / 2021.03.06 0056 UTC
Wind: from the NNW (330 degrees) at 8 MPH (7 KT):0
Visibility: 10 mile(s):0
Sky conditions: mostly cloudy
Temperature: 42.1 F (5.6 C)
Dew Point: 21.0 F (-6.1 C)
Relative Humidity: 42%
Pressure (altimeter): 30.29 in. Hg (1025 hPa)
ob: KSDF 060056Z 33007KT 10SM BKN250 06/M06 A3029 RMK AO2 SLP260 T00561061
cycle: 1

Station Type Date Time Source
KSDF TAF 2021/03/05 18:22 UTC NOAA

TAF KSDF 051720Z 0518/0624 06007KT P6SM BKN250
FM052000 02008KT P6SM BKN250
FM060000 36006KT P6SM SCT250

Example: see airport list